Time;durP1;ratioP1;P1;durP2;ratioP2;P2;SDS_P1;SDS_P2;PMS_P1;PMS_P2;Temp;Humidity;BMP_temperature;BMP_pressure;BME280_temperature;BME280_humidity;BME280_pressure;Samples;Min_cycle;Max_cycle;Signal;HPM_P1;HPM_P2
2023/08/14 00:01:04;;;;;;;3.00;1.70;;;18.30;99.90;;;18.62;100.00;101029.66;5183298;28;20041;-73
2023/08/14 00:03:37;;;;;;;3.30;1.58;;;18.20;99.90;;;18.61;100.00;101025.25;5184399;28;20145;-73
2023/08/14 00:06:11;;;;;;;3.08;1.70;;;18.20;99.90;;;18.63;100.00;101027.88;5184894;28;20133;-73
2023/08/14 00:08:44;;;;;;;2.78;1.60;;;18.20;99.90;;;18.63;100.00;101018.19;5185019;28;20077;-73
2023/08/14 00:11:17;;;;;;;2.03;1.52;;;18.20;99.90;;;18.62;100.00;101015.56;5182419;28;20515;-75
2023/08/14 00:13:52;;;;;;;2.53;1.50;;;18.20;99.90;;;18.58;100.00;101019.97;5180095;28;20034;-73
2023/08/14 00:16:25;;;;;;;2.80;1.42;;;18.20;99.90;;;18.51;100.00;101018.13;5182266;28;20042;-73
2023/08/14 00:18:57;;;;;;;2.30;1.33;;;18.10;99.90;;;18.48;100.00;101023.41;5181186;28;20049;-72
2023/08/14 00:21:29;;;;;;;2.40;1.75;;;18.10;99.90;;;18.49;100.00;101035.72;5179294;28;20038;-74
2023/08/14 00:24:03;;;;;;;2.90;1.40;;;18.10;99.90;;;18.46;100.00;101025.16;5166680;28;20514;-73
2023/08/14 00:26:36;;;;;;;2.85;1.63;;;18.10;99.90;;;18.44;100.00;101025.13;5184654;28;20044;-73
2023/08/14 00:29:08;;;;;;;2.67;1.48;;;18.10;99.90;;;18.42;100.00;101026.88;5183068;28;20053;-73
2023/08/14 00:31:40;;;;;;;2.47;1.50;;;18.10;99.90;;;18.38;100.00;101026.84;5166087;28;20052;-73
2023/08/14 00:34:12;;;;;;;1.95;1.45;;;18.00;99.90;;;18.38;100.00;101018.94;5177784;28;20042;-72
2023/08/14 00:36:45;;;;;;;3.17;1.65;;;18.00;99.90;;;18.36;100.00;101012.78;5183571;28;20104;-73
2023/08/14 00:39:19;;;;;;;2.25;1.55;;;18.00;99.90;;;18.34;100.00;101014.53;5183304;28;20053;-73
2023/08/14 00:41:51;;;;;;;2.63;1.40;;;18.00;99.90;;;18.31;100.00;101014.50;5180203;28;20116;-73
2023/08/14 00:44:23;;;;;;;4.00;1.85;;;18.00;99.90;;;18.32;100.00;101008.34;5182749;28;20056;-74
2023/08/14 00:46:55;;;;;;;3.70;1.58;;;17.90;99.90;;;18.32;100.00;100998.69;5182986;28;20050;-73
2023/08/14 00:49:28;;;;;;;3.10;1.73;;;17.90;99.90;;;18.33;100.00;101007.50;5166591;28;20056;-72
2023/08/14 00:52:00;;;;;;;3.15;1.60;;;17.90;99.90;;;18.31;100.00;100998.66;5184544;28;20042;-73
2023/08/14 00:54:34;;;;;;;3.17;1.77;;;17.90;99.90;;;18.29;100.00;101001.28;5166859;28;20050;-73
2023/08/14 00:57:07;;;;;;;3.47;1.63;;;17.90;99.90;;;18.28;100.00;100993.38;5183099;28;20120;-72
2023/08/14 00:59:40;;;;;;;2.92;1.70;;;17.90;99.90;;;18.26;100.00;101008.31;5182202;28;20064;-73
2023/08/14 01:02:13;;;;;;;3.20;1.70;;;17.90;99.90;;;18.23;100.00;101000.38;5165949;28;20060;-73
2023/08/14 01:04:45;;;;;;;3.22;1.67;;;17.90;99.90;;;18.23;100.00;101010.94;5182639;28;20136;-73
2023/08/14 01:07:18;;;;;;;3.30;1.52;;;17.90;99.90;;;18.20;100.00;100997.72;5182607;28;20052;-73
2023/08/14 01:09:53;;;;;;;2.45;1.60;;;17.80;99.90;;;18.18;100.00;101001.22;5176424;28;20577;-73
2023/08/14 01:12:37;;;;;;;2.17;1.40;;;17.80;99.90;;;18.20;100.00;100997.72;5182573;28;20049;-73
2023/08/14 01:15:14;;;;;;;3.00;1.70;;;17.80;99.90;;;18.20;100.00;100995.09;5182645;28;20053;-74
2023/08/14 01:17:53;;;;;;;2.95;1.60;;;17.80;99.90;;;18.17;100.00;101002.09;5183680;28;20049;-73
2023/08/14 01:20:29;;;;;;;2.03;1.50;;;17.80;99.90;;;18.16;100.00;100996.81;5181967;28;20046;-74
2023/08/14 01:23:13;;;;;;;3.33;1.65;;;17.80;99.90;;;18.11;100.00;100996.75;5165861;28;20041;-73
2023/08/14 01:25:52;;;;;;;3.67;1.70;;;17.80;99.90;;;18.10;100.00;100994.13;5182136;28;20412;-72
2023/08/14 01:28:25;;;;;;;3.15;1.52;;;17.70;99.90;;;18.08;100.00;100991.47;5166052;28;20049;-73
2023/08/14 01:30:57;;;;;;;2.13;1.50;;;17.70;99.90;;;18.07;100.00;100984.44;5182593;28;20048;-73
2023/08/14 01:33:30;;;;;;;2.60;1.33;;;17.70;99.90;;;18.04;100.00;100971.22;5181510;28;20050;-73
2023/08/14 01:36:14;;;;;;;3.55;1.60;;;17.70;99.90;;;18.02;100.00;100970.34;5182375;28;20034;-72
2023/08/14 01:39:01;;;;;;;3.13;1.70;;;17.60;99.90;;;17.99;100.00;100970.28;5182079;28;20080;-73
2023/08/14 01:41:43;;;;;;;2.83;1.63;;;17.60;99.90;;;17.95;100.00;100963.25;5166219;28;20469;-73
2023/08/14 01:44:20;;;;;;;2.78;1.30;;;17.60;99.90;;;17.93;100.00;100970.28;5182962;28;20054;-75
2023/08/14 01:46:59;;;;;;;2.80;1.90;;;17.60;99.90;;;17.93;100.00;100958.81;5181634;28;20518;-72
2023/08/14 01:49:32;;;;;;;3.08;1.77;;;17.60;99.90;;;17.91;100.00;100961.44;5181779;28;20056;-73
2023/08/14 01:52:07;;;;;;;4.10;1.63;;;17.60;99.90;;;17.88;100.00;100957.03;5182051;28;20053;-73
2023/08/14 01:54:39;;;;;;;3.45;1.58;;;17.50;99.90;;;17.84;100.00;100959.63;5181827;28;20041;-72
2023/08/14 01:57:12;;;;;;;2.78;1.83;;;17.50;99.90;;;17.83;100.00;100949.97;5182111;28;20510;-72
2023/08/14 01:59:47;;;;;;;2.97;1.50;;;17.50;99.90;;;17.85;100.00;100950.84;5181815;28;20492;-73
2023/08/14 02:02:20;;;;;;;1.65;1.13;;;17.50;99.90;;;17.85;100.00;100941.19;5181955;28;20526;-73
2023/08/14 02:04:52;;;;;;;2.38;1.60;;;17.50;99.90;;;17.85;100.00;100940.31;5174139;28;20037;-72
2023/08/14 02:07:26;;;;;;;2.85;1.52;;;17.50;99.90;;;17.81;100.00;100939.41;5157289;28;20057;-73
2023/08/14 02:10:03;;;;;;;5.93;2.17;;;17.50;99.90;;;17.78;100.00;100944.66;5181581;28;20104;-72
2023/08/14 02:12:37;;;;;;;6.45;2.00;;;17.40;99.90;;;17.77;100.00;100940.25;5165361;28;20120;-72
2023/08/14 02:15:13;;;;;;;2.85;1.73;;;17.40;99.90;;;17.71;100.00;100939.28;5181752;28;20096;-73
2023/08/14 02:17:46;;;;;;;2.53;1.70;;;17.40;99.90;;;17.67;100.00;100935.75;5183010;28;20129;-73
2023/08/14 02:20:18;;;;;;;3.47;1.83;;;17.30;99.90;;;17.63;100.00;100934.84;5165048;28;20060;-73
2023/08/14 02:22:51;;;;;;;2.97;1.58;;;17.30;99.90;;;17.60;100.00;100928.66;5164761;28;20041;-73
2023/08/14 02:25:23;;;;;;;2.05;1.65;;;17.30;99.90;;;17.57;100.00;100929.53;5157477;28;20078;-73
2023/08/14 02:27:58;;;;;;;5.05;1.67;;;17.20;99.90;;;17.52;100.00;100918.03;5183548;28;20048;-73
2023/08/14 02:30:31;;;;;;;2.22;1.52;;;17.20;99.90;;;17.49;100.00;100920.66;5180758;28;20061;-72
2023/08/14 02:33:06;;;;;;;2.05;1.52;;;17.20;99.90;;;17.45;100.00;100923.25;5183442;28;20151;-72
2023/08/14 02:35:38;;;;;;;3.17;1.65;;;17.10;99.90;;;17.45;100.00;100931.16;5182813;28;20049;-73
2023/08/14 02:38:10;;;;;;;1.85;1.30;;;17.10;99.90;;;17.46;100.00;100923.25;5183263;28;20407;-73
2023/08/14 02:40:43;;;;;;;2.53;1.58;;;17.10;99.90;;;17.45;100.00;100924.13;5181276;28;20496;-73
2023/08/14 02:43:16;;;;;;;1.55;1.33;;;17.10;99.90;;;17.41;100.00;100922.38;5181465;28;20054;-73
2023/08/14 02:45:49;;;;;;;2.45;1.42;;;17.10;99.90;;;17.38;100.00;100922.31;5164718;28;20141;-73
2023/08/14 02:48:22;;;;;;;2.10;1.60;;;17.00;99.90;;;17.33;100.00;100919.63;5182785;28;20069;-73
2023/08/14 02:50:55;;;;;;;2.60;1.50;;;17.00;99.90;;;17.32;100.00;100927.53;5181122;28;20045;-75
2023/08/14 02:53:27;;;;;;;3.17;1.80;;;17.00;99.90;;;17.28;100.00;100921.38;5180851;28;20054;-73
2023/08/14 02:56:00;;;;;;;3.70;1.70;;;17.00;99.90;;;17.23;100.00;100924.81;5184899;28;20038;-73
2023/08/14 02:58:35;;;;;;;2.28;1.30;;;16.90;99.90;;;17.19;100.00;100930.91;5184961;28;20054;-73
2023/08/14 03:01:07;;;;;;;1.95;1.42;;;16.90;99.90;;;17.15;100.00;100929.09;5185115;28;20053;-73
2023/08/14 03:03:40;;;;;;;3.25;1.65;;;16.80;99.90;;;17.11;100.00;100932.59;5184553;28;20050;-73
2023/08/14 03:06:12;;;;;;;2.65;1.52;;;16.80;99.90;;;17.09;100.00;100933.47;5186478;28;20098;-73
2023/08/14 03:08:44;;;;;;;3.35;1.75;;;16.80;99.90;;;17.05;100.00;100929.03;5186629;28;20536;-73
2023/08/14 03:11:16;;;;;;;1.75;1.50;;;16.80;99.90;;;17.03;100.00;100927.25;5184781;28;20619;-73
2023/08/14 03:13:50;;;;;;;2.55;1.35;;;16.70;99.90;;;17.02;100.00;100925.50;5184595;28;20144;-72
2023/08/14 03:16:22;;;;;;;2.22;1.42;;;16.70;99.90;;;16.98;100.00;100921.94;5184616;28;20045;-73
2023/08/14 03:18:55;;;;;;;1.55;1.42;;;16.70;99.90;;;16.94;100.00;100919.25;5184496;28;20048;-73
2023/08/14 03:21:27;;;;;;;2.20;1.50;;;16.60;99.90;;;16.90;100.00;100928.00;5186114;28;20503;-73
2023/08/14 03:24:00;;;;;;;1.90;1.40;;;16.60;99.90;;;16.88;100.00;100925.31;5168782;28;20042;-74
2023/08/14 03:26:32;;;;;;;2.35;1.30;;;16.60;99.90;;;16.85;100.00;100922.66;5184492;28;20125;-73
2023/08/14 03:29:05;;;;;;;3.05;1.65;;;16.50;99.90;;;16.81;100.00;100918.22;5184356;28;20431;-73
2023/08/14 03:31:38;;;;;;;1.88;1.23;;;16.50;99.90;;;16.79;100.00;100925.22;5184248;28;20042;-73
2023/08/14 03:34:10;;;;;;;3.53;1.83;;;16.50;99.90;;;16.78;100.00;100920.81;5184832;28;20614;-73
2023/08/14 03:36:43;;;;;;;2.42;1.45;;;16.50;99.90;;;16.76;100.00;100914.69;5168510;28;20593;-73
2023/08/14 03:39:17;;;;;;;1.80;1.45;;;16.50;99.90;;;16.74;100.00;100916.38;5167922;28;20100;-74
2023/08/14 03:41:49;;;;;;;2.10;1.45;;;16.40;99.90;;;16.70;100.00;100925.13;5167611;28;20198;-73
2023/08/14 03:44:23;;;;;;;3.22;1.42;;;16.40;99.90;;;16.66;100.00;100918.91;5184074;28;20042;-74
2023/08/14 03:46:55;;;;;;;1.70;1.23;;;16.40;99.90;;;16.64;100.00;100917.13;5167819;28;20192;-73
2023/08/14 03:49:27;;;;;;;1.63;1.27;;;16.40;99.90;;;16.62;100.00;100911.81;5168243;28;20069;-73
2023/08/14 03:51:59;;;;;;;1.58;1.17;;;16.30;99.90;;;16.58;100.00;100919.69;5159872;28;20057;-73
2023/08/14 03:54:31;;;;;;;2.03;1.35;;;16.30;99.90;;;16.56;100.00;100922.28;5185592;28;20068;-74
2023/08/14 03:57:04;;;;;;;3.05;1.42;;;16.30;99.90;;;16.55;100.00;100921.38;5183726;28;20046;-73
2023/08/14 03:59:42;;;;;;;2.35;1.50;;;16.30;99.90;;;16.52;100.00;100916.09;5178678;28;20050;-72
2023/08/14 04:02:16;;;;;;;1.77;1.33;;;16.30;99.90;;;16.52;100.00;100923.13;5185382;28;20514;-73
2023/08/14 04:04:49;;;;;;;2.60;1.52;;;16.20;99.90;;;16.53;100.00;100917.88;5183871;28;20538;-73
2023/08/14 04:07:21;;;;;;;3.08;1.33;;;16.20;99.90;;;16.53;100.00;100909.97;5184602;28;20057;-73
2023/08/14 04:09:54;;;;;;;1.67;1.20;;;16.30;99.90;;;16.54;100.00;100903.84;5183549;28;20459;-72
2023/08/14 04:12:26;;;;;;;3.03;1.58;;;16.30;99.90;;;16.55;100.00;100909.97;5163627;28;20057;-73
2023/08/14 04:15:14;;;;;;;2.20;1.50;;;16.30;99.90;;;16.54;100.00;100908.22;5183256;28;20049;-73
2023/08/14 04:17:47;;;;;;;2.45;1.30;;;16.30;99.90;;;16.52;100.00;100905.56;5184912;28;20084;-73
2023/08/14 04:20:20;;;;;;;3.35;1.70;;;16.30;99.90;;;16.51;100.00;100902.94;5183566;28;20073;-73
2023/08/14 04:22:52;;;;;;;2.40;1.42;;;16.20;99.90;;;16.50;100.00;100907.31;5180076;28;20507;-73
2023/08/14 04:25:24;;;;;;;3.70;1.27;;;16.20;99.90;;;16.51;100.00;100906.44;5166134;28;20089;-72
2023/08/14 04:27:57;;;;;;;2.40;1.50;;;16.20;99.90;;;16.51;100.00;100906.44;5175673;28;20100;-73
2023/08/14 04:30:33;;;;;;;2.40;1.60;;;16.20;99.90;;;16.51;100.00;100905.56;5181251;28;20054;-73
2023/08/14 04:33:06;;;;;;;2.85;1.38;;;16.20;99.90;;;16.50;100.00;100901.16;5177267;28;20454;-72
2023/08/14 04:35:39;;;;;;;2.30;1.60;;;16.20;99.90;;;16.49;100.00;100891.47;5167321;28;20137;-73
2023/08/14 04:38:11;;;;;;;2.30;1.33;;;16.20;99.90;;;16.47;100.00;100894.09;5184126;28;20623;-73
2023/08/14 04:40:48;;;;;;;2.15;1.27;;;16.20;99.90;;;16.48;100.00;100898.50;5183439;28;20369;-72
2023/08/14 04:43:20;;;;;;;2.95;1.65;;;16.20;99.90;;;16.50;100.00;100899.41;5183084;28;20061;-72
2023/08/14 04:45:54;;;;;;;2.10;1.52;;;16.20;99.90;;;16.51;100.00;100882.75;5181315;28;21128;-71
2023/08/14 04:48:26;;;;;;;2.42;1.60;;;16.20;99.90;;;16.52;100.00;100879.25;5182419;28;20046;-73
2023/08/14 04:50:59;;;;;;;2.22;1.50;;;16.30;99.90;;;16.54;100.00;100880.16;5181726;28;20117;-73
2023/08/14 04:53:31;;;;;;;4.10;1.70;;;16.30;99.90;;;16.59;100.00;100892.50;5149526;28;20088;-74
2023/08/14 04:56:06;;;;;;;2.60;1.73;;;16.30;99.90;;;16.64;100.00;100885.53;5166520;28;20117;-73
2023/08/14 04:58:38;;;;;;;3.75;1.70;;;16.30;99.90;;;16.71;100.00;100893.56;5151265;28;20054;-73
2023/08/14 05:01:12;;;;;;;3.00;1.60;;;16.40;99.90;;;16.80;100.00;100900.66;5183414;28;20140;-73
2023/08/14 05:03:44;;;;;;;3.20;1.55;;;16.50;99.90;;;16.90;100.00;100896.41;5182957;28;20041;-73
2023/08/14 05:06:17;;;;;;;3.60;1.90;;;16.60;99.90;;;16.95;100.00;100894.66;5183506;28;20042;-73
2023/08/14 05:08:50;;;;;;;4.82;2.05;;;16.70;99.90;;;17.06;100.00;100900.94;5166987;28;20522;-73
2023/08/14 05:11:23;;;;;;;3.75;1.77;;;16.80;99.90;;;17.12;100.00;100908.91;5183067;28;20084;-72
2023/08/14 05:13:55;;;;;;;3.42;2.00;;;16.90;99.90;;;17.13;100.00;100907.16;5184456;28;20049;-73
2023/08/14 05:16:30;;;;;;;3.13;1.75;;;16.90;99.90;;;17.18;100.00;100898.44;5183034;28;20046;-73
2023/08/14 05:19:04;;;;;;;2.83;1.70;;;17.00;99.90;;;17.32;100.00;100907.34;5151177;28;20060;-72
2023/08/14 05:21:38;;;;;;;3.83;1.75;;;17.10;99.90;;;17.58;100.00;100898.78;5182746;28;20049;-72
2023/08/14 05:24:11;;;;;;;5.40;2.15;;;17.30;99.90;;;17.84;100.00;100891.97;5176922;28;20057;-73
2023/08/14 05:26:43;;;;;;;3.28;1.95;;;17.50;99.90;;;18.11;100.00;100896.53;5184281;28;20053;-73
2023/08/14 05:29:16;;;;;;;3.05;1.83;;;17.70;99.90;;;18.43;100.00;100893.16;5184388;28;20048;-74
2023/08/14 05:31:50;;;;;;;5.85;1.83;;;18.00;99.90;;;18.74;100.00;100899.47;5166230;28;20541;-73
2023/08/14 05:34:23;;;;;;;6.07;1.83;;;18.30;99.90;;;19.01;100.00;100898.66;5182838;28;20570;-73
2023/08/14 05:36:55;;;;;;;4.80;2.22;;;18.50;99.90;;;19.34;100.00;100904.88;5182838;28;20503;-73
2023/08/14 05:39:28;;;;;;;4.82;2.10;;;18.80;99.90;;;19.64;100.00;100907.56;5184781;28;20049;-73
2023/08/14 05:42:00;;;;;;;4.97;2.17;;;19.10;99.90;;;19.95;100.00;100908.41;5183104;28;20049;-73
2023/08/14 05:44:32;;;;;;;4.13;2.20;;;19.40;99.90;;;20.18;100.00;100918.94;5183043;28;20133;-73
2023/08/14 05:47:06;;;;;;;5.55;1.90;;;19.60;99.90;;;20.44;100.00;100912.69;5183720;28;20045;-72
2023/08/14 05:49:39;;;;;;;3.83;1.63;;;19.80;99.90;;;20.83;100.00;100916.94;5183987;28;20414;-73
2023/08/14 05:52:11;;;;;;;3.88;1.75;;;20.20;99.90;;;21.15;100.00;100927.34;5175145;28;20058;-73
2023/08/14 05:54:44;;;;;;;5.43;1.88;;;20.50;99.90;;;21.48;100.00;100917.44;5183572;28;20054;-72
2023/08/14 05:57:16;;;;;;;2.90;1.60;;;20.80;99.90;;;21.82;100.00;100923.31;5183927;28;20041;-71
2023/08/14 05:59:48;;;;;;;3.88;1.85;;;21.20;99.90;;;22.08;100.00;100931.91;5181977;28;20136;-72
2023/08/14 06:02:21;;;;;;;2.97;1.60;;;21.40;99.90;;;22.26;100.00;100930.00;5183634;28;20046;-73
2023/08/14 06:04:55;;;;;;;4.00;1.92;;;21.60;99.90;;;22.35;100.00;100924.56;5182494;28;20419;-71
2023/08/14 06:07:28;;;;;;;4.10;1.75;;;21.80;99.90;;;22.50;100.00;100919.09;5183441;28;20053;-71
2023/08/14 06:10:00;;;;;;;5.35;1.88;;;21.90;99.90;;;22.45;100.00;100910.28;5182907;28;20065;-72
2023/08/14 06:12:33;;;;;;;3.08;1.80;;;21.90;99.90;;;22.28;100.00;100912.25;5183770;28;20045;-71
2023/08/14 06:15:07;;;;;;;3.83;1.85;;;21.90;99.90;;;21.92;100.00;100899.34;5183415;28;20037;-72
2023/08/14 06:17:41;;;;;;;2.70;1.48;;;21.70;99.90;;;21.47;100.00;100894.47;5165641;28;20048;-71
2023/08/14 06:20:13;;;;;;;6.90;1.90;;;21.30;99.90;;;21.34;100.00;100894.56;5175778;28;20120;-71
2023/08/14 06:22:47;;;;;;;3.35;1.80;;;21.20;99.90;;;21.60;100.00;100893.47;5183286;28;20508;-71
2023/08/14 06:25:19;;;;;;;4.18;1.70;;;21.20;99.90;;;21.83;100.00;100899.41;5182059;28;20105;-71
2023/08/14 06:27:52;;;;;;;4.78;1.67;;;21.30;99.90;;;21.94;100.00;100897.53;5183533;28;20060;-72
2023/08/14 06:30:25;;;;;;;3.92;1.50;;;21.50;99.90;;;22.04;100.00;100886.81;5188212;28;20046;-71
2023/08/14 06:32:58;;;;;;;3.78;1.80;;;21.50;99.90;;;22.25;100.00;100899.03;5190040;28;20457;-66
2023/08/14 06:35:31;;;;;;;2.00;1.33;;;21.70;99.90;;;22.55;100.00;100895.09;5190481;28;20076;-67
2023/08/14 06:38:03;;;;;;;5.07;1.42;;;21.90;99.90;;;22.68;100.00;100894.03;5190176;28;20067;-66
2023/08/14 06:40:35;;;;;;;2.55;1.35;;;22.10;99.90;;;22.69;100.00;100904.69;5189698;28;20050;-66
2023/08/14 06:43:07;;;;;;;2.35;1.52;;;22.10;99.90;;;22.58;100.00;100895.09;5189838;28;20056;-66
2023/08/14 06:45:39;;;;;;;3.63;1.63;;;22.10;99.90;;;22.50;100.00;100895.19;5190333;28;20050;-66
2023/08/14 06:48:12;;;;;;;3.45;1.60;;;22.00;99.90;;;22.48;100.00;100897.84;5188275;28;20065;-66
2023/08/14 06:50:45;;;;;;;4.32;1.80;;;22.00;99.90;;;22.46;100.00;100896.97;5189738;28;20456;-65
2023/08/14 06:53:17;;;;;;;3.10;1.63;;;22.00;99.90;;;22.57;100.00;100898.63;5189746;28;20404;-68
2023/08/14 06:55:49;;;;;;;2.67;1.52;;;22.00;99.90;;;22.77;100.00;100903.69;5188701;28;20061;-67
2023/08/14 06:58:21;;;;;;;4.45;1.73;;;22.10;99.90;;;22.98;100.00;100900.75;5189800;28;20120;-68
2023/08/14 07:00:53;;;;;;;2.67;1.55;;;22.40;99.90;;;23.08;100.00;100889.06;5188123;28;20050;-68
2023/08/14 07:03:27;;;;;;;2.70;1.52;;;22.50;99.90;;;23.01;100.00;100896.25;5189407;28;20520;-68
2023/08/14 07:05:59;;;;;;;2.70;1.40;;;22.50;99.90;;;22.97;100.00;100894.56;5188228;28;20419;-68
2023/08/14 07:08:31;;;;;;;2.35;1.40;;;22.40;99.90;;;23.08;100.00;100888.19;5183822;28;20174;-65
2023/08/14 07:11:03;;;;;;;4.97;1.50;;;22.50;99.90;;;23.09;100.00;100884.66;5187432;28;20583;-65
2023/08/14 07:13:35;;;;;;;2.70;1.33;;;22.50;99.90;;;23.09;100.00;100882.88;5189592;28;20519;-65
2023/08/14 07:16:08;;;;;;;2.95;1.60;;;22.50;99.90;;;23.10;100.00;100881.09;5188873;28;20085;-65
2023/08/14 07:18:42;;;;;;;2.83;1.48;;;22.50;99.90;;;23.07;100.00;100883.78;5189117;28;20038;-64
2023/08/14 07:21:14;;;;;;;2.83;1.67;;;22.50;99.90;;;22.97;100.00;100883.94;5187969;28;20045;-64
2023/08/14 07:23:46;;;;;;;2.92;1.35;;;22.40;99.90;;;22.87;100.00;100887.59;5187598;28;20132;-65
2023/08/14 07:26:19;;;;;;;3.53;1.42;;;22.30;99.90;;;22.75;100.00;100888.63;5187651;28;20573;-65
2023/08/14 07:28:51;;;;;;;2.28;1.27;;;22.20;99.90;;;22.66;100.00;100899.38;5188645;28;20495;-65
2023/08/14 07:31:24;;;;;;;1.75;1.10;;;22.10;99.90;;;22.56;100.00;100896.84;5189160;28;20045;-65
2023/08/14 07:33:57;;;;;;;3.53;1.48;;;22.00;99.90;;;22.47;100.00;100904.06;5188973;28;20065;-65
2023/08/14 07:36:29;;;;;;;2.97;1.60;;;21.90;99.90;;;22.39;100.00;100894.44;5189188;28;20096;-65
2023/08/14 07:39:01;;;;;;;4.63;1.55;;;21.90;99.90;;;22.32;100.00;100892.75;5188767;28;20408;-65
2023/08/14 07:41:33;;;;;;;2.60;1.33;;;21.80;99.90;;;22.28;100.00;100886.56;5184314;28;20046;-66
2023/08/14 07:44:06;;;;;;;3.22;1.27;;;21.80;99.90;;;22.23;100.00;100883.09;5185808;28;20392;-65
2023/08/14 07:46:38;;;;;;;1.90;1.17;;;21.70;99.90;;;22.20;100.00;100883.16;5185841;28;20046;-65
2023/08/14 07:49:12;;;;;;;2.15;1.35;;;21.70;99.90;;;22.15;100.00;100884.97;5185229;28;20034;-65
2023/08/14 07:51:44;;;;;;;1.63;1.30;;;21.60;99.90;;;22.10;100.00;100881.47;5185340;28;20058;-67
2023/08/14 07:54:16;;;;;;;2.45;1.40;;;21.60;99.90;;;22.04;100.00;100885.06;5183838;28;20068;-68
2023/08/14 07:56:48;;;;;;;2.47;1.33;;;21.50;99.90;;;22.02;100.00;100883.31;5185451;28;20061;-67
2023/08/14 07:59:20;;;;;;;2.55;1.33;;;21.50;99.90;;;22.01;100.00;100878.91;5185791;28;20034;-67
2023/08/14 08:01:55;;;;;;;2.95;1.60;;;21.50;99.90;;;22.02;100.00;100880.66;5184936;28;20052;-67
2023/08/14 08:04:34;;;;;;;3.78;1.63;;;21.50;99.90;;;22.05;100.00;100891.25;5183769;28;20137;-67
2023/08/14 08:07:06;;;;;;;2.80;1.83;;;21.50;99.90;;;22.04;100.00;100893.03;5185356;28;20045;-68
2023/08/14 08:09:39;;;;;;;2.25;1.60;;;21.50;99.90;;;22.07;100.00;100906.25;5183670;28;20488;-68
2023/08/14 08:12:11;;;;;;;2.58;1.55;;;21.50;99.90;;;22.14;100.00;100907.09;5166490;28;20041;-66
2023/08/14 08:14:43;;;;;;;2.33;1.50;;;21.60;99.90;;;22.26;100.00;100904.31;5185916;28;20132;-68
2023/08/14 08:17:16;;;;;;;3.97;1.33;;;21.60;99.90;;;22.43;100.00;100891.72;5183873;28;20041;-66
2023/08/14 08:19:51;;;;;;;1.60;1.38;;;21.70;99.90;;;22.56;100.00;100891.53;5183727;28;20421;-67
2023/08/14 08:22:23;;;;;;;;;;;21.80;99.90;;;22.72;100.00;100901.09;5178153;28;20046;-66
2023/08/14 08:24:55;;;;;;;3.17;1.75;;;21.90;99.90;;;22.96;100.00;100903.44;5184736;28;19925;-67
2023/08/14 08:27:27;;;;;;;5.85;1.60;;;22.10;99.90;;;23.27;100.00;100902.97;5183878;28;20048;-67
2023/08/14 08:29:59;;;;;;;3.25;1.60;;;22.20;99.90;;;23.59;100.00;100893.56;5184604;28;20048;-66
2023/08/14 08:32:31;;;;;;;2.85;1.60;;;22.50;99.90;;;23.83;100.00;100885.19;5183907;28;20034;-67
2023/08/14 08:35:06;;;;;;;1.73;1.30;;;22.60;99.90;;;24.21;100.00;100889.78;5184613;28;20050;-66
2023/08/14 08:37:38;;;;;;;1.63;1.17;;;22.90;99.90;;;24.71;100.00;100879.00;5185130;28;20503;-64
2023/08/14 08:40:11;;;;;;;2.63;1.52;;;23.20;99.90;;;25.83;98.58;100896.78;5184848;28;20650;-75
2023/08/14 08:42:43;;;;;;;2.13;1.13;;;23.70;99.90;;;26.86;93.61;100893.84;5183841;28;20523;-76
2023/08/14 08:45:18;;;;;;;2.38;1.20;;;24.50;99.90;;;27.47;90.23;100899.97;5185084;28;20439;-75
2023/08/14 08:47:52;;;;;;;3.92;1.60;;;25.10;99.90;;;27.51;88.66;100899.78;5167217;28;20050;-74
2023/08/14 08:50:27;;;;;;;4.60;1.40;;;25.40;99.90;;;26.98;88.86;100901.50;5175690;28;20052;-75
2023/08/14 08:52:59;;;;;;;2.55;1.45;;;25.30;99.90;;;26.64;90.62;100902.53;5184550;28;20048;-79
2023/08/14 08:55:33;;;;;;;2.25;1.40;;;25.20;99.90;;;26.52;91.29;100910.91;5185073;28;20578;-78
2023/08/14 08:58:07;;;;;;;3.08;1.52;;;25.10;99.90;;;26.27;91.76;100926.72;5184651;28;20057;-77
2023/08/14 09:00:39;;;;;;;2.47;1.60;;;25.00;99.90;;;26.08;92.41;100915.72;5184885;28;20049;-74
2023/08/14 09:03:12;;;;;;;3.47;1.30;;;24.80;99.90;;;25.90;93.09;100926.88;5167116;28;20416;-75
2023/08/14 09:05:49;;;;;;;2.10;1.13;;;24.70;99.90;;;25.54;94.13;100917.97;5183798;28;20042;-75
2023/08/14 09:08:22;;;;;;;3.00;1.45;;;24.50;99.90;;;25.27;95.35;100916.88;5167089;28;20445;-78
2023/08/14 09:10:54;;;;;;;2.40;1.48;;;24.30;99.90;;;25.09;96.90;100912.84;5183137;28;20046;-77
2023/08/14 09:13:26;;;;;;;3.05;1.20;;;24.20;99.90;;;25.13;97.76;100898.53;5183262;28;20125;-75
2023/08/14 09:16:01;;;;;;;1.98;1.42;;;24.10;99.90;;;25.32;97.55;100906.97;5184510;28;20049;-76
2023/08/14 09:18:33;;;;;;;4.03;1.52;;;24.20;99.90;;;25.42;96.74;100905.81;5183165;28;20045;-76
2023/08/14 09:21:07;;;;;;;2.72;1.30;;;24.20;99.90;;;25.49;96.39;100901.19;5183905;28;20056;-75
2023/08/14 09:23:39;;;;;;;4.20;1.60;;;24.40;99.90;;;25.52;96.38;100902.00;5183046;28;20046;-75
2023/08/14 09:26:12;;;;;;;5.97;2.00;;;24.40;99.90;;;25.50;96.07;100893.19;5183363;28;20419;-77
2023/08/14 09:28:45;;;;;;;4.25;1.60;;;24.40;99.90;;;25.56;95.61;100885.03;5184958;28;20037;-79
2023/08/14 09:31:17;;;;;;;3.72;1.50;;;24.50;99.90;;;25.66;94.98;100889.19;5182957;28;20046;-77
2023/08/14 09:33:51;;;;;;;3.22;1.60;;;24.70;99.90;;;25.79;94.55;100888.91;5183960;28;20050;-76
2023/08/14 09:36:33;;;;;;;2.92;1.40;;;24.80;99.90;;;25.91;94.42;100888.56;5182809;28;20053;-77
2023/08/14 09:39:06;;;;;;;2.75;1.40;;;24.90;99.90;;;25.90;93.27;100894.84;5183983;28;20492;-75
2023/08/14 09:41:38;;;;;;;2.83;1.40;;;24.90;99.90;;;25.73;92.73;100886.38;5183888;28;20048;-76
2023/08/14 09:44:12;;;;;;;3.72;1.60;;;24.90;99.90;;;25.67;92.91;100896.28;5183945;28;20050;-75
2023/08/14 09:46:44;;;;;;;3.50;1.48;;;24.90;99.90;;;25.73;93.58;100895.28;5162524;28;20038;-75
2023/08/14 09:49:17;;;;;;;2.92;1.35;;;24.80;99.90;;;25.62;93.50;100887.50;5182643;28;20060;-75
2023/08/14 09:51:58;;;;;;;2.78;1.80;;;24.80;99.90;;;25.49;94.46;100887.84;5183852;28;20117;-75
2023/08/14 09:54:32;;;;;;;2.45;1.52;;;24.70;99.90;;;;;;5175026;28;20042;-75
2023/08/14 09:57:05;;;;;;;2.28;1.35;;;24.60;99.90;;;25.45;95.87;100863.06;5182702;28;20041;-75
2023/08/14 09:59:37;;;;;;;3.10;1.30;;;24.60;99.90;;;25.69;96.92;100870.44;5183491;28;20136;-74
2023/08/14 10:02:16;;;;;;;3.38;1.20;;;24.80;99.90;;;26.01;95.91;100868.69;5182046;28;20415;-74
2023/08/14 10:04:50;;;;;;;3.85;1.55;;;25.00;99.90;;;26.25;93.37;100865.34;5181246;28;20081;-75
2023/08/14 10:07:26;;;;;;;2.92;1.27;;;25.20;99.90;;;26.33;91.78;100858.88;5165685;28;20054;-75
2023/08/14 10:10:02;;;;;;;4.65;1.48;;;25.30;99.90;;;26.31;91.61;100860.75;5181865;28;20046;-75
2023/08/14 10:12:43;;;;;;;2.60;1.45;;;25.40;99.90;;;26.29;91.81;100849.22;5182496;28;20077;-74
2023/08/14 10:15:22;;;;;;;2.20;1.23;;;25.40;99.90;;;26.37;91.62;100852.53;5181440;28;20504;-75
2023/08/14 10:17:59;;;;;;;3.65;1.35;;;25.50;99.90;;;26.59;92.28;100851.00;5183234;28;20044;-76
2023/08/14 10:20:35;;;;;;;2.65;1.35;;;25.60;99.90;;;26.88;90.79;100857.25;5174134;28;20042;-76
2023/08/14 10:23:09;;;;;;;2.88;1.35;;;25.80;99.90;;;27.02;89.22;100852.34;5182893;28;20041;-75
2023/08/14 10:25:46;;;;;;;3.03;1.35;;;25.90;99.60;;;27.04;90.10;100862.06;5184173;28;20041;-76
2023/08/14 10:28:20;;;;;;;3.05;1.30;;;26.00;99.80;;;27.05;89.94;100860.28;5183094;28;20647;-67
2023/08/14 10:30:53;;;;;;;1.58;1.15;;;26.00;99.70;;;27.14;89.11;100848.44;5164634;28;20316;-67
2023/08/14 10:33:26;;;;;;;3.38;1.35;;;26.10;99.40;;;27.11;87.61;100844.03;5164880;28;20046;-67